Time;durP1;ratioP1;P1;durP2;ratioP2;P2;SDS_P1;SDS_P2;PMS_P1;PMS_P2;Temp;Humidity;BMP_temperature;BMP_pressure;BME280_temperature;BME280_humidity;BME280_pressure;Samples;Min_cycle;Max_cycle;Signal;HPM_P1;HPM_P2
2023/10/07 00:02:14;;;;;;;0.10;0.10;;;11.50;94.30;;;;;;5021865;28;20867;-82
2023/10/07 00:04:41;;;;;;;0.10;0.10;;;11.50;94.40;;;;;;5010623;28;20596;-84
2023/10/07 00:07:11;;;;;;;0.65;0.65;;;11.50;94.30;;;;;;5018637;28;20060;-84
2023/10/07 00:09:45;;;;;;;0.10;0.10;;;11.60;94.10;;;;;;5020536;28;20033;-86
2023/10/07 00:12:19;;;;;;;2.08;1.98;;;11.50;94.10;;;;;;5016004;28;20029;-85
2023/10/07 00:14:45;;;;;;;0.10;0.10;;;11.50;94.00;;;;;;5019848;28;20025;-87
2023/10/07 00:17:17;;;;;;;0.10;0.10;;;11.50;94.20;;;;;;5021863;28;20034;-85
2023/10/07 00:19:47;;;;;;;0.35;0.35;;;11.50;93.90;;;;;;5024695;28;20041;-83
2023/10/07 00:22:14;;;;;;;0.10;0.10;;;11.60;93.90;;;;;;5024941;28;20075;-86
2023/10/07 00:24:45;;;;;;;0.10;0.10;;;11.40;94.10;;;;;;5024967;28;20094;-86
2023/10/07 00:27:26;;;;;;;0.10;0.10;;;11.40;94.20;;;;;;5025870;28;20033;-85
2023/10/07 00:29:55;;;;;;;0.10;0.10;;;11.40;94.40;;;;;;5024891;28;20040;-85
2023/10/07 00:32:29;;;;;;;0.10;0.10;;;11.40;94.30;;;;;;5024754;28;20129;-89
2023/10/07 00:34:55;;;;;;;0.10;0.10;;;11.40;94.30;;;;;;5026629;28;20112;-88
2023/10/07 00:37:24;;;;;;;0.10;0.10;;;11.30;94.40;;;;;;5026645;28;20060;-90
2023/10/07 00:39:51;;;;;;;0.10;0.10;;;11.20;94.70;;;;;;5027636;28;20259;-89
2023/10/07 00:42:18;;;;;;;0.05;0.05;;;11.10;95.00;;;;;;5028212;28;20021;-89
2023/10/07 00:44:47;;;;;;;0.10;0.10;;;11.10;95.10;;;;;;5029169;28;20104;-89
2023/10/07 00:47:13;;;;;;;0.32;0.32;;;11.20;94.90;;;;;;5027975;28;20087;-89
2023/10/07 00:52:27;;;;;;;0.10;0.10;;;11.10;95.00;;;;;;5026215;28;20061;-88
2023/10/07 00:55:08;;;;;;;0.10;0.10;;;11.00;95.20;;;;;;5025417;28;20524;-89
2023/10/07 00:57:37;;;;;;;0.10;0.10;;;10.90;95.40;;;;;;5024962;28;20045;-89
2023/10/07 01:02:51;;;;;;;0.10;0.10;;;11.00;95.20;;;;;;5022853;28;20040;-88
2023/10/07 01:05:32;;;;;;;0.10;0.10;;;11.00;95.20;;;;;;5026223;28;20014;-90
2023/10/07 01:07:58;;;;;;;0.10;0.10;;;11.00;94.90;;;;;;5023874;28;20112;-89
2023/10/07 01:10:31;;;;;;;0.10;0.10;;;11.00;94.90;;;;;;5025445;28;20041;-89
2023/10/07 01:13:02;;;;;;;0.10;0.10;;;10.90;94.90;;;;;;5026119;28;20037;-88
2023/10/07 01:15:30;;;;;;;0.10;0.10;;;11.00;94.80;;;;;;5024400;28;20025;-91
2023/10/07 01:18:03;;;;;;;0.38;0.38;;;10.90;94.90;;;;;;5026246;28;20167;-89
2023/10/07 01:20:35;;;;;;;0.10;0.10;;;10.90;95.00;;;;;;5018624;28;20024;-89
2023/10/07 01:23:05;;;;;;;0.10;0.10;;;10.80;95.20;;;;;;5025516;28;20485;-88
2023/10/07 01:25:34;;;;;;;0.10;0.10;;;10.80;95.10;;;;;;5024674;28;20045;-89
2023/10/07 01:28:02;;;;;;;0.10;0.10;;;10.70;95.20;;;;;;5023317;28;20021;-89
2023/10/07 01:30:34;;;;;;;0.10;0.10;;;10.80;94.90;;;;;;5023757;28;20037;-86
2023/10/07 01:33:24;;;;;;;0.10;0.10;;;10.80;94.90;;;;;;5020167;28;20063;-85
2023/10/07 01:36:11;;;;;;;0.10;0.10;;;10.70;94.90;;;;;;5021009;28;20037;-88
2023/10/07 01:38:43;;;;;;;0.10;0.10;;;10.80;94.70;;;;;;5019963;28;20025;-87
2023/10/07 01:41:18;;;;;;;0.10;0.10;;;10.80;94.50;;;;;;5022133;28;20068;-87
2023/10/07 01:44:00;;;;;;;0.10;0.10;;;10.70;94.60;;;;;;5025197;28;20087;-88
2023/10/07 01:46:30;;;;;;;0.10;0.10;;;10.70;94.70;;;;;;5016222;28;20033;-90
2023/10/07 01:48:58;;;;;;;1.25;0.63;;;10.70;94.80;;;;;;5025005;28;20026;-90
2023/10/07 01:51:26;;;;;;;;;;;10.70;94.70;;;;;;5025454;28;20044;-91
2023/10/07 01:53:56;;;;;;;0.10;0.10;;;10.60;94.90;;;;;;5026184;28;20375;-88
2023/10/07 01:56:22;;;;;;;0.10;0.10;;;10.60;94.80;;;;;;5025058;28;20065;-89
2023/10/07 01:58:48;;;;;;;0.10;0.10;;;10.50;95.00;;;;;;5023431;28;20029;-88
2023/10/07 02:01:17;;;;;;;0.10;0.10;;;10.50;95.00;;;;;;5024388;28;20051;-88
2023/10/07 02:03:45;;;;;;;0.10;0.10;;;10.40;95.00;;;;;;5024561;28;20037;-87
2023/10/07 02:06:11;;;;;;;0.30;0.30;;;10.50;95.10;;;;;;5022077;28;20064;-85
2023/10/07 02:08:37;;;;;;;0.10;0.10;;;10.50;94.90;;;;;;5023292;28;20116;-85
2023/10/07 02:11:05;;;;;;;0.50;0.50;;;10.40;95.00;;;;;;5023561;28;20033;-86
2023/10/07 02:13:31;;;;;;;0.10;0.10;;;10.40;95.00;;;;;;5023750;28;20024;-85
2023/10/07 02:15:57;;;;;;;0.10;0.10;;;10.30;95.00;;;;;;5023915;28;20041;-86
2023/10/07 02:18:26;;;;;;;0.52;0.52;;;10.30;95.00;;;;;;5022227;28;20033;-88
2023/10/07 02:21:06;;;;;;;0.10;0.10;;;10.50;94.60;;;;;;5023954;28;20029;-86
2023/10/07 02:23:43;;;;;;;0.10;0.10;;;10.40;94.60;;;;;;5020696;28;20026;-87
2023/10/07 02:26:19;;;;;;;0.10;0.10;;;10.30;94.70;;;;;;5019560;28;20060;-85
2023/10/07 02:28:53;;;;;;;1.83;1.45;;;10.40;94.60;;;;;;5024093;28;20030;-86
2023/10/07 02:31:20;;;;;;;0.10;0.10;;;10.30;94.70;;;;;;5019276;28;20111;-86
2023/10/07 02:33:51;;;;;;;0.10;0.10;;;10.30;94.80;;;;;;5019355;28;20053;-88
2023/10/07 02:36:28;;;;;;;0.10;0.10;;;10.20;94.70;;;;;;5019557;28;20032;-87
2023/10/07 02:39:18;;;;;;;0.10;0.10;;;10.20;94.70;;;;;;5017985;28;20037;-88
2023/10/07 02:41:46;;;;;;;0.10;0.10;;;10.20;94.60;;;;;;5032065;28;20882;-88
2023/10/07 02:44:16;;;;;;;0.10;0.10;;;10.20;94.60;;;;;;5019296;28;20103;-88
2023/10/07 02:46:42;;;;;;;0.10;0.10;;;10.10;94.60;;;;;;5023810;28;20036;-88
2023/10/07 02:49:13;;;;;;;0.10;0.10;;;10.20;94.40;;;;;;5021499;28;20040;-88
2023/10/07 02:51:46;;;;;;;0.10;0.10;;;10.10;94.50;;;;;;5024203;28;20164;-89
2023/10/07 02:54:20;;;;;;;0.10;0.10;;;10.10;94.50;;;;;;5019395;28;20103;-91
2023/10/07 02:57:06;;;;;;;0.10;0.10;;;10.30;94.00;;;;;;5023389;28;20063;-89
2023/10/07 02:59:36;;;;;;;0.10;0.10;;;10.20;94.10;;;;;;5020035;28;20076;-90
2023/10/07 03:02:12;;;;;;;0.10;0.10;;;10.10;94.20;;;;;;5027329;28;20519;-90
2023/10/07 03:04:42;;;;;;;;;;;10.10;94.20;;;;;;5018152;28;20362;-89
2023/10/07 03:07:14;;;;;;;0.10;0.10;;;10.10;94.20;;;;;;5017889;28;19912;-89
2023/10/07 03:09:45;;;;;;;0.10;0.10;;;10.00;94.20;;;;;;5022872;28;20017;-87
2023/10/07 03:12:13;;;;;;;0.10;0.10;;;10.00;94.30;;;;;;5023594;28;20113;-86
2023/10/07 03:14:43;;;;;;;0.10;0.10;;;9.90;94.30;;;;;;5022645;28;20529;-88
2023/10/07 03:17:18;;;;;;;0.10;0.10;;;10.00;94.20;;;;;;5022521;28;20034;-87
2023/10/07 03:22:43;;;;;;;0.50;0.50;;;10.00;94.20;;;;;;5019018;28;20120;-87
2023/10/07 03:25:16;;;;;;;0.10;0.10;;;9.90;94.40;;;;;;5018594;28;20053;-87
2023/10/07 03:27:49;;;;;;;0.10;0.10;;;9.80;94.50;;;;;;5014699;28;20091;-85
2023/10/07 03:30:19;;;;;;;0.10;0.10;;;9.70;94.60;;;;;;5021308;28;20029;-87
2023/10/07 03:32:57;;;;;;;0.10;0.10;;;9.70;94.80;;;;;;5021654;28;20052;-88
2023/10/07 03:36:07;;;;;;;0.10;0.10;;;9.70;94.90;;;;;;5020995;28;20696;-86
2023/10/07 03:38:27;;;;;;;0.10;0.10;;;9.60;94.90;;;;;;5015148;28;20433;-86
2023/10/07 03:40:56;;;;;;;0.10;0.10;;;9.60;95.00;;;;;;5013883;28;20490;-84
2023/10/07 03:43:25;;;;;;;0.10;0.10;;;9.60;94.90;;;;;;5014192;28;20032;-84
2023/10/07 03:45:52;;;;;;;0.10;0.10;;;9.60;94.70;;;;;;5020731;28;20034;-83
2023/10/07 03:48:23;;;;;;;0.10;0.10;;;9.60;94.80;;;;;;5021295;28;20125;-84
2023/10/07 03:50:59;;;;;;;0.10;0.10;;;9.50;95.00;;;;;;5024362;28;20879;-85
2023/10/07 03:53:44;;;;;;;0.10;0.10;;;9.70;94.40;;;;;;5022531;28;20056;-85
2023/10/07 03:56:13;;;;;;;0.10;0.10;;;9.60;94.50;;;;;;5020042;28;20060;-85
2023/10/07 03:58:42;;;;;;;0.90;0.90;;;9.50;94.70;;;;;;5022974;28;20018;-85
2023/10/07 04:01:16;;;;;;;0.10;0.10;;;9.50;94.60;;;;;;5023141;28;20082;-85
2023/10/07 04:03:50;;;;;;;0.10;0.10;;;9.40;94.80;;;;;;5024250;28;20029;-85
2023/10/07 04:06:17;;;;;;;0.10;0.10;;;9.40;94.80;;;;;;5016793;28;20123;-83
2023/10/07 04:08:45;;;;;;;;;;;9.40;94.90;;;;;;5024907;28;20560;-84
2023/10/07 04:11:19;;;;;;;0.10;0.10;;;9.50;94.70;;;;;;5025861;28;19916;-84
2023/10/07 04:13:46;;;;;;;0.22;0.22;;;9.40;94.60;;;;;;5019433;28;20671;-88
2023/10/07 04:16:23;;;;;;;0.10;0.10;;;9.40;94.50;;;;;;5024364;28;20064;-88
2023/10/07 04:18:50;;;;;;;0.10;0.10;;;9.40;94.50;;;;;;5025454;28;20095;-87
2023/10/07 04:21:16;;;;;;;0.10;0.10;;;9.40;94.50;;;;;;5023266;28;20061;-88
2023/10/07 04:23:44;;;;;;;0.10;0.10;;;9.30;94.50;;;;;;5020749;28;20058;-89
2023/10/07 04:26:11;;;;;;;0.10;0.10;;;9.30;94.60;;;;;;5023070;28;20745;-85
2023/10/07 04:28:40;;;;;;;0.10;0.10;;;9.30;94.60;;;;;;5023829;28;20117;-88
2023/10/07 04:31:12;;;;;;;0.10;0.10;;;9.30;94.60;;;;;;5020033;28;20025;-87
2023/10/07 04:33:47;;;;;;;0.10;0.10;;;9.30;94.50;;;;;;5020026;28;20030;-88
2023/10/07 04:36:14;;;;;;;0.10;0.10;;;9.30;94.20;;;;;;5017038;28;20473;-85
2023/10/07 04:38:53;;;;;;;0.10;0.10;;;9.30;94.30;;;;;;5013314;28;20021;-87
2023/10/07 04:43:50;;;;;;;0.10;0.10;;;9.10;94.60;;;;;;5018846;28;20029;-89
2023/10/07 04:46:23;;;;;;;0.40;0.40;;;9.10;94.90;;;;;;5017370;28;20022;-90
2023/10/07 04:48:56;;;;;;;0.10;0.10;;;9.10;94.80;;;;;;5026882;28;20029;-90
2023/10/07 04:53:58;;;;;;;0.10;0.10;;;9.10;94.60;;;;;;5029916;28;20025;-89
2023/10/07 04:56:25;;;;;;;0.10;0.10;;;9.10;94.40;;;;;;5029306;28;20036;-89
2023/10/07 04:58:55;;;;;;;0.10;0.10;;;9.10;94.40;;;;;;5028879;28;20546;-89
2023/10/07 05:01:33;;;;;;;0.10;0.10;;;9.00;94.60;;;;;;5027735;28;20033;-90
2023/10/07 05:04:09;;;;;;;0.10;0.10;;;9.10;94.40;;;;;;5039186;28;20052;-89
2023/10/07 05:06:37;;;;;;;0.10;0.10;;;9.00;94.30;;;;;;5017975;28;20622;-90
2023/10/07 05:09:10;;;;;;;0.10;0.10;;;8.90;94.40;;;;;;5026346;28;20064;-91
2023/10/07 05:11:38;;;;;;;0.10;0.10;;;8.90;94.50;;;;;;5026548;28;20055;-87
2023/10/07 05:14:07;;;;;;;0.10;0.10;;;8.90;94.10;;;;;;5025311;28;20032;-85
2023/10/07 05:16:34;;;;;;;0.10;0.10;;;8.90;94.00;;;;;;5023373;28;20041;-87
2023/10/07 05:19:00;;;;;;;0.10;0.10;;;8.90;94.00;;;;;;5026205;28;20559;-89
2023/10/07 05:21:27;;;;;;;0.10;0.10;;;8.70;94.40;;;;;;5025764;28;20017;-88
2023/10/07 05:23:53;;;;;;;0.10;0.10;;;8.70;94.60;;;;;;5024660;28;20384;-88
2023/10/07 05:26:18;;;;;;;0.10;0.10;;;8.70;94.40;;;;;;5024548;28;20053;-88
2023/10/07 05:28:47;;;;;;;0.20;0.20;;;8.70;94.30;;;;;;5027237;28;20036;-90
2023/10/07 05:31:17;;;;;;;0.30;0.30;;;8.70;94.30;;;;;;5034956;28;20481;-89
2023/10/07 05:33:44;;;;;;;0.10;0.10;;;8.80;94.10;;;;;;5020052;28;20028;-89
2023/10/07 05:36:14;;;;;;;0.10;0.10;;;8.60;94.30;;;;;;5033624;28;20882;-90
2023/10/07 05:38:42;;;;;;;0.10;0.10;;;8.60;94.40;;;;;;5033014;28;20026;-89
2023/10/07 05:41:12;;;;;;;0.10;0.10;;;8.60;94.40;;;;;;5036879;28;20036;-87
2023/10/07 05:43:51;;;;;;;0.10;0.10;;;8.60;94.30;;;;;;5028790;28;20018;-86
2023/10/07 05:46:20;;;;;;;0.10;0.10;;;8.60;94.20;;;;;;5041606;28;20024;-84
2023/10/07 05:48:51;;;;;;;0.10;0.10;;;8.70;94.00;;;;;;5035651;28;20036;-87
2023/10/07 05:51:17;;;;;;;0.10;0.10;;;8.60;94.00;;;;;;5032563;28;20018;-90
2023/10/07 05:53:48;;;;;;;0.10;0.10;;;8.50;94.30;;;;;;5029301;28;20029;-85
2023/10/07 05:56:14;;;;;;;0.10;0.10;;;8.40;94.50;;;;;;5029388;28;20033;-87
2023/10/07 05:58:40;;;;;;;0.00;0.00;;;8.50;94.50;;;;;;5021292;28;20083;-87
2023/10/07 06:01:14;;;;;;;0.10;0.10;;;8.50;94.30;;;;;;5040706;28;20029;-86
2023/10/07 06:03:42;;;;;;;0.10;0.10;;;8.60;94.10;;;;;;5016831;28;20025;-88
2023/10/07 06:06:09;;;;;;;0.10;0.10;;;8.50;94.10;;;;;;5029560;28;20469;-88
2023/10/07 06:08:35;;;;;;;0.10;0.10;;;8.50;94.20;;;;;;5031905;28;20820;-90
2023/10/07 06:11:02;;;;;;;0.10;0.10;;;8.60;94.00;;;;;;5027577;28;20030;-91
2023/10/07 06:13:29;;;;;;;0.10;0.10;;;8.90;93.70;;;;;;5021213;28;20595;-88
2023/10/07 06:15:58;;;;;;;;;;;9.20;92.80;;;;;;5030100;28;20099;-92
2023/10/07 06:18:25;;;;;;;0.10;0.10;;;9.30;92.50;;;;;;5021509;28;19956;-91
2023/10/07 06:20:52;;;;;;;0.10;0.10;;;9.40;92.30;;;;;;5030466;28;20106;-92
2023/10/07 06:23:19;;;;;;;0.10;0.10;;;9.60;91.90;;;;;;5039614;28;20065;-91
2023/10/07 06:25:51;;;;;;;;;;;9.80;91.30;;;;;;5033057;28;20104;-88
2023/10/07 06:31:10;;;;;;;0.10;0.10;;;10.30;90.10;;;;;;5031121;28;20030;-91
2023/10/07 06:33:39;;;;;;;0.10;0.10;;;10.50;89.60;;;;;;5031583;28;20021;-91
2023/10/07 06:36:06;;;;;;;0.10;0.10;;;10.80;88.20;;;;;;5032151;28;20045;-89
2023/10/07 06:38:33;;;;;;;0.10;0.10;;;11.10;86.90;;;;;;5037267;28;20151;-90
2023/10/07 06:40:59;;;;;;;0.10;0.10;;;11.50;84.50;;;;;;5022712;28;20124;-88
2023/10/07 06:43:25;;;;;;;0.10;0.10;;;11.80;82.70;;;;;;5025438;28;20056;-90
2023/10/07 06:45:54;;;;;;;0.10;0.10;;;12.10;81.20;;;;;;5024400;28;20465;-86
2023/10/07 06:48:24;;;;;;;0.08;0.08;;;12.20;80.70;;;;;;5022625;28;20491;-87
2023/10/07 06:50:53;;;;;;;0.00;0.00;;;12.30;80.20;;;;;;5021255;28;20037;-87
2023/10/07 06:53:22;;;;;;;0.00;0.00;;;12.50;79.00;;;;;;5023846;28;20100;-85
2023/10/07 06:55:52;;;;;;;0.00;0.00;;;12.70;77.80;;;;;;5024591;28;20033;-86
2023/10/07 06:58:22;;;;;;;0.45;0.45;;;13.10;77.10;;;;;;5024431;28;20083;-86
2023/10/07 07:00:56;;;;;;;0.00;0.00;;;13.30;76.50;;;;;;5024962;28;20030;-86
2023/10/07 07:03:25;;;;;;;2.10;0.25;;;13.60;75.10;;;;;;5024323;28;20035;-86
2023/10/07 07:05:52;;;;;;;0.00;0.00;;;13.60;74.30;;;;;;5024406;28;20030;-87
2023/10/07 07:08:22;;;;;;;;;;;13.70;74.30;;;;;;5024165;28;20021;-86
2023/10/07 07:10:55;;;;;;;0.00;0.00;;;14.00;73.10;;;;;;5024019;28;19909;-86
2023/10/07 07:13:27;;;;;;;0.00;0.00;;;14.20;73.00;;;;;;5027747;28;20017;-87
2023/10/07 07:16:08;;;;;;;0.00;0.00;;;14.40;71.70;;;;;;5029434;28;20243;-86
2023/10/07 07:18:39;;;;;;;0.00;0.00;;;14.80;70.60;;;;;;5024011;28;20110;-87
2023/10/07 07:21:14;;;;;;;0.00;0.00;;;15.20;69.10;;;;;;5023717;28;20481;-87
2023/10/07 07:23:45;;;;;;;0.00;0.00;;;15.40;68.80;;;;;;5023544;28;21026;-92
2023/10/07 07:26:12;;;;;;;0.00;0.00;;;15.50;67.80;;;;;;5027267;28;20111;-86
2023/10/07 07:28:42;;;;;;;;;;;15.70;67.90;;;;;;5029563;28;20434;-85
2023/10/07 07:31:18;;;;;;;0.00;0.00;;;15.80;68.30;;;;;;5027167;28;19909;-89
2023/10/07 07:33:48;;;;;;;0.00;0.00;;;15.60;67.30;;;;;;5025926;28;20037;-85
2023/10/07 07:36:38;;;;;;;0.00;0.00;;;15.80;67.70;;;;;;5017051;28;20046;-85
2023/10/07 07:39:09;;;;;;;0.08;0.08;;;15.70;66.20;;;;;;5029406;28;20030;-86
2023/10/07 07:41:54;;;;;;;0.00;0.00;;;15.70;67.30;;;;;;5028314;28;20030;-90
2023/10/07 07:44:32;;;;;;;0.20;0.20;;;15.90;65.90;;;;;;5026593;28;20026;-85
2023/10/07 07:47:05;;;;;;;0.00;0.00;;;15.80;64.90;;;;;;5026188;28;20029;-84
2023/10/07 07:49:38;;;;;;;0.00;0.00;;;15.90;65.10;;;;;;5022193;28;20026;-87
2023/10/07 07:52:08;;;;;;;0.00;0.00;;;16.30;65.00;;;;;;5027948;28;20481;-90
2023/10/07 07:54:33;;;;;;;0.00;0.00;;;16.30;64.10;;;;;;5032729;28;20113;-88
2023/10/07 07:57:04;;;;;;;0.00;0.00;;;16.60;64.20;;;;;;5029417;28;20120;-87
2023/10/07 07:59:32;;;;;;;0.00;0.00;;;16.80;64.50;;;;;;5021547;28;20026;-85
2023/10/07 08:02:11;;;;;;;0.00;0.00;;;17.00;64.70;;;;;;5028764;28;20021;-87
2023/10/07 08:04:48;;;;;;;0.00;0.00;;;17.20;63.60;;;;;;5022021;28;20031;-85
2023/10/07 08:09:55;;;;;;;0.10;0.10;;;17.50;62.50;;;;;;5026804;28;20034;-84
2023/10/07 08:12:33;;;;;;;0.00;0.00;;;17.60;60.50;;;;;;5026326;28;20030;-85
2023/10/07 08:15:09;;;;;;;0.00;0.00;;;17.60;61.50;;;;;;5032082;28;20033;-85
2023/10/07 08:17:37;;;;;;;0.00;0.00;;;17.90;61.10;;;;;;5022856;28;20041;-84
2023/10/07 08:20:10;;;;;;;0.00;0.00;;;18.00;59.90;;;;;;5022483;28;20074;-87
2023/10/07 08:22:44;;;;;;;0.00;0.00;;;18.60;58.00;;;;;;5020043;28;20031;-84
2023/10/07 08:25:45;;;;;;;0.00;0.00;;;18.50;58.80;;;;;;5039808;28;20049;-87
2023/10/07 08:28:38;;;;;;;0.00;0.00;;;18.70;58.80;;;;;;5035428;28;20485;-85
2023/10/07 08:31:13;;;;;;;0.00;0.00;;;18.90;58.00;;;;;;5029558;28;20116;-86
2023/10/07 08:33:42;;;;;;;0.00;0.00;;;18.80;56.10;;;;;;5025161;28;20397;-86
2023/10/07 08:36:08;;;;;;;0.00;0.00;;;19.40;56.30;;;;;;5033996;28;20034;-85
2023/10/07 08:38:38;;;;;;;0.00;0.00;;;19.70;54.50;;;;;;5025023;28;20034;-86
2023/10/07 08:41:04;;;;;;;0.00;0.00;;;19.90;55.30;;;;;;5032347;28;20075;-84
2023/10/07 08:43:43;;;;;;;0.00;0.00;;;19.50;55.50;;;;;;5032900;28;20130;-84
2023/10/07 08:46:12;;;;;;;0.00;0.00;;;19.40;55.70;;;;;;5016763;28;20871;-83
2023/10/07 08:48:49;;;;;;;0.00;0.00;;;19.60;56.40;;;;;;5031263;28;20053;-81
2023/10/07 08:51:21;;;;;;;0.00;0.00;;;19.70;54.20;;;;;;5050447;28;20382;-86
2023/10/07 08:53:47;;;;;;;0.00;0.00;;;19.60;55.10;;;;;;5026408;28;20076;-84
2023/10/07 08:56:14;;;;;;;;;;;19.70;55.60;;;;;;5025840;28;20041;-86
2023/10/07 08:58:41;;;;;;;0.00;0.00;;;19.60;55.40;;;;;;5024962;28;19919;-85
2023/10/07 09:01:16;;;;;;;0.00;0.00;;;20.10;56.70;;;;;;5025988;28;20075;-83
2023/10/07 09:03:47;;;;;;;0.00;0.00;;;20.20;54.80;;;;;;5025547;28;20036;-83
2023/10/07 09:06:13;;;;;;;0.00;0.00;;;20.70;54.60;;;;;;5025288;28;20057;-84
2023/10/07 09:08:39;;;;;;;0.00;0.00;;;20.90;54.30;;;;;;5025208;28;20025;-83
2023/10/07 09:11:08;;;;;;;0.00;0.00;;;20.30;53.50;;;;;;5025965;28;20034;-86
2023/10/07 09:13:36;;;;;;;0.00;0.00;;;20.80;54.10;;;;;;5024419;28;20029;-87
2023/10/07 09:16:07;;;;;;;0.00;0.00;;;21.00;54.20;;;;;;5025104;28;20044;-84
2023/10/07 09:18:39;;;;;;;0.00;0.00;;;20.70;53.30;;;;;;5012597;28;20467;-84
2023/10/07 09:21:22;;;;;;;0.00;0.00;;;20.90;54.40;;;;;;5024900;28;20820;-84
2023/10/07 09:23:51;;;;;;;0.00;0.00;;;21.10;54.00;;;;;;5016032;28;20025;-80
2023/10/07 09:26:41;;;;;;;0.00;0.00;;;21.80;52.50;;;;;;5023826;28;20114;-82
2023/10/07 09:29:21;;;;;;;0.00;0.00;;;21.80;52.30;;;;;;5024296;28;20042;-80
2023/10/07 09:32:04;;;;;;;0.00;0.00;;;21.50;51.20;;;;;;5020699;28;20421;-81
2023/10/07 09:34:42;;;;;;;0.00;0.00;;;21.50;51.10;;;;;;5011546;28;20034;-83
2023/10/07 09:37:13;;;;;;;0.00;0.00;;;21.10;50.80;;;;;;5024344;28;20033;-81
2023/10/07 09:39:46;;;;;;;0.00;0.00;;;20.80;53.10;;;;;;5024463;28;20047;-81
2023/10/07 09:42:36;;;;;;;0.00;0.00;;;20.40;53.70;;;;;;5024941;28;20117;-82
2023/10/07 09:47:37;;;;;;;0.00;0.00;;;20.10;52.00;;;;;;5024369;28;20347;-81
2023/10/07 09:50:50;;;;;;;0.00;0.00;;;20.10;54.20;;;;;;5024152;28;20044;-81
2023/10/07 09:53:37;;;;;;;0.00;0.00;;;20.10;53.30;;;;;;5018136;28;20033;-80
2023/10/07 09:56:38;;;;;;;0.00;0.00;;;20.30;55.00;;;;;;5024106;28;20051;-80
2023/10/07 09:59:32;;;;;;;0.00;0.00;;;20.50;55.00;;;;;;5023429;28;20034;-84
2023/10/07 10:02:51;;;;;;;0.00;0.00;;;20.20;54.80;;;;;;5025238;28;20048;-85
2023/10/07 10:05:38;;;;;;;0.10;0.10;;;20.20;54.50;;;;;;5007659;28;20515;-83
2023/10/07 10:08:37;;;;;;;0.00;0.00;;;20.40;54.00;;;;;;5023988;28;20029;-83
2023/10/07 10:11:19;;;;;;;0.00;0.00;;;20.10;53.80;;;;;;5024847;28;20376;-83
2023/10/07 10:16:44;;;;;;;1.23;1.23;;;20.40;55.50;;;;;;5025645;28;20033;-85
2023/10/07 10:19:22;;;;;;;0.00;0.00;;;20.30;53.90;;;;;;5028036;28;20094;-83
2023/10/07 10:21:51;;;;;;;0.00;0.00;;;20.50;56.60;;;;;;5030745;28;20074;-83
2023/10/07 10:24:22;;;;;;;0.00;0.00;;;20.30;55.50;;;;;;5026520;28;20053;-83
2023/10/07 10:26:54;;;;;;;0.00;0.00;;;20.50;55.90;;;;;;5026672;28;20026;-82
2023/10/07 10:29:25;;;;;;;0.00;0.00;;;20.50;57.00;;;;;;5015868;28;20026;-85
2023/10/07 10:31:58;;;;;;;0.20;0.20;;;20.50;56.10;;;;;;5024739;28;20040;-83
2023/10/07 10:34:26;;;;;;;0.00;0.00;;;20.60;56.10;;;;;;5034865;28;20025;-83
2023/10/07 10:36:55;;;;;;;0.00;0.00;;;20.40;56.60;;;;;;5026247;28;20501;-84
2023/10/07 10:39:26;;;;;;;0.00;0.00;;;20.60;56.90;;;;;;5027301;28;20064;-84
2023/10/07 10:41:56;;;;;;;0.00;0.00;;;20.60;57.10;;;;;;5025823;28;20026;-84
2023/10/07 10:44:22;;;;;;;0.00;0.00;;;20.50;56.40;;;;;;5026243;28;20508;-83
2023/10/07 10:46:51;;;;;;;0.00;0.00;;;20.70;57.30;;;;;;5026764;28;20022;-84
2023/10/07 10:49:23;;;;;;;0.00;0.00;;;20.60;57.20;;;;;;5024168;28;20396;-84
2023/10/07 10:51:51;;;;;;;0.00;0.00;;;20.60;58.60;;;;;;5026400;28;20030;-82
2023/10/07 10:54:17;;;;;;;0.00;0.00;;;20.80;58.30;;;;;;5022914;28;20028;-83
2023/10/07 10:57:05;;;;;;;0.00;0.00;;;20.70;60.20;;;;;;5020699;28;20026;-81
2023/10/07 10:59:42;;;;;;;0.00;0.00;;;20.70;59.10;;;;;;5019996;28;20064;-84
2023/10/07 11:02:12;;;;;;;0.00;0.00;;;20.80;58.90;;;;;;5021553;28;20536;-84
2023/10/07 11:04:38;;;;;;;0.00;0.00;;;20.90;58.60;;;;;;5021227;28;20022;-83
2023/10/07 11:07:07;;;;;;;0.00;0.00;;;20.90;60.20;;;;;;5022227;28;20033;-84
2023/10/07 11:09:36;;;;;;;0.00;0.00;;;21.00;59.90;;;;;;5021585;28;20109;-84
2023/10/07 11:12:09;;;;;;;0.00;0.00;;;21.20;61.30;;;;;;5021425;28;20631;-83
2023/10/07 11:14:38;;;;;;;0.10;0.10;;;21.20;59.10;;;;;;5019504;28;20030;-83
2023/10/07 11:17:05;;;;;;;0.00;0.00;;;21.10;58.30;;;;;;5017866;28;20120;-84
2023/10/07 11:19:31;;;;;;;0.00;0.00;;;21.00;57.30;;;;;;5019513;28;20034;-84
2023/10/07 11:21:58;;;;;;;0.00;0.00;;;21.10;57.40;;;;;;5022040;28;20030;-84
2023/10/07 11:24:27;;;;;;;0.00;0.00;;;21.10;57.40;;;;;;5020175;28;20045;-84
2023/10/07 11:26:56;;;;;;;0.00;0.00;;;21.00;57.30;;;;;;5022434;28;20037;-85
2023/10/07 11:29:27;;;;;;;0.00;0.00;;;21.00;59.80;;;;;;5018794;28;20113;-83
2023/10/07 11:32:00;;;;;;;0.00;0.00;;;20.90;62.10;;;;;;5022596;28;20112;-84
2023/10/07 11:34:45;;;;;;;0.00;0.00;;;21.00;60.30;;;;;;5013885;28;20136;-83
2023/10/07 11:37:18;;;;;;;0.00;0.00;;;21.10;57.20;;;;;;5021268;28;20029;-84
2023/10/07 11:39:45;;;;;;;0.00;0.00;;;21.00;58.60;;;;;;5022197;28;20059;-84
2023/10/07 11:42:16;;;;;;;0.00;0.00;;;21.20;62.10;;;;;;5022235;28;20017;-83
2023/10/07 11:44:46;;;;;;;0.00;0.00;;;21.20;55.30;;;;;;5021270;28;20025;-84
2023/10/07 11:47:15;;;;;;;0.00;0.00;;;21.10;52.70;;;;;;5032541;28;20041;-84
2023/10/07 11:49:41;;;;;;;0.00;0.00;;;21.00;49.30;;;;;;5020862;28;20045;-84
2023/10/07 11:52:07;;;;;;;0.00;0.00;;;20.90;46.50;;;;;;5020533;28;20136;-84
2023/10/07 11:54:40;;;;;;;0.00;0.00;;;20.70;49.30;;;;;;5010841;28;20040;-85
2023/10/07 11:57:06;;;;;;;0.00;0.00;;;21.00;53.90;;;;;;5012152;28;20048;-86
2023/10/07 11:59:36;;;;;;;0.00;0.00;;;21.30;48.30;;;;;;5020746;28;20029;-84
2023/10/07 12:02:09;;;;;;;0.00;0.00;;;21.30;47.80;;;;;;5019205;28;20148;-84
2023/10/07 12:04:40;;;;;;;0.00;0.00;;;21.30;48.90;;;;;;5021056;28;20416;-86
2023/10/07 12:07:14;;;;;;;0.00;0.00;;;21.10;48.80;;;;;;5020253;28;20072;-86
2023/10/07 12:09:40;;;;;;;0.00;0.00;;;21.30;43.00;;;;;;5021488;28;20025;-87
2023/10/07 12:12:08;;;;;;;;;;;21.40;44.40;;;;;;5020554;28;20044;-85
2023/10/07 12:14:34;;;;;;;0.00;0.00;;;21.40;40.80;;;;;;5024919;28;19995;-84
2023/10/07 12:17:01;;;;;;;0.00;0.00;;;21.40;43.20;;;;;;5024505;28;20044;-86
2023/10/07 12:19:27;;;;;;;0.00;0.00;;;21.30;42.90;;;;;;5024863;28;20025;-85
2023/10/07 12:21:53;;;;;;;0.00;0.00;;;21.30;42.20;;;;;;5023730;28;20076;-84
2023/10/07 12:24:20;;;;;;;0.00;0.00;;;21.40;42.80;;;;;;5029433;28;20060;-84
2023/10/07 12:26:50;;;;;;;0.00;0.00;;;21.40;41.30;;;;;;5025046;28;20129;-84
2023/10/07 12:29:20;;;;;;;0.00;0.00;;;21.50;41.00;;;;;;5024057;28;20060;-83
2023/10/07 12:31:47;;;;;;;0.00;0.00;;;21.70;42.60;;;;;;5023966;28;20043;-84
2023/10/07 12:34:15;;;;;;;0.00;0.00;;;21.70;42.50;;;;;;5024607;28;20026;-85
2023/10/07 12:36:41;;;;;;;0.00;0.00;;;21.40;45.10;;;;;;5024915;28;20044;-85
2023/10/07 12:39:10;;;;;;;0.00;0.00;;;21.70;43.30;;;;;;5025095;28;20647;-84
2023/10/07 12:41:39;;;;;;;0.00;0.00;;;21.60;42.70;;;;;;5026623;28;20041;-86
2023/10/07 12:44:09;;;;;;;1.75;1.65;;;21.70;42.90;;;;;;5022115;28;20033;-85
2023/10/07 12:46:38;;;;;;;1.73;1.60;;;21.60;44.60;;;;;;5019111;28;20116;-85
2023/10/07 12:49:13;;;;;;;0.00;0.00;;;21.90;42.40;;;;;;5023048;28;20094;-84
2023/10/07 12:51:45;;;;;;;0.00;0.00;;;21.90;43.70;;;;;;5017879;28;20138;-83
2023/10/07 12:54:11;;;;;;;0.00;0.00;;;22.00;44.30;;;;;;5019842;28;20622;-83
2023/10/07 12:56:39;;;;;;;0.00;0.00;;;21.90;46.10;;;;;;5027512;28;20040;-85
2023/10/07 12:59:17;;;;;;;0.00;0.00;;;22.00;44.50;;;;;;5023783;28;20124;-85
2023/10/07 13:01:56;;;;;;;0.00;0.00;;;22.00;45.90;;;;;;5023767;28;20029;-85
2023/10/07 13:04:25;;;;;;;0.57;0.30;;;22.10;46.90;;;;;;5020180;28;20030;-84
2023/10/07 13:07:00;;;;;;;0.00;0.00;;;22.10;48.00;;;;;;5021152;28;20061;-82
2023/10/07 13:09:30;;;;;;;0.00;0.00;;;22.10;47.90;;;;;;5021291;28;20022;-82
2023/10/07 13:12:00;;;;;;;0.00;0.00;;;22.40;46.20;;;;;;5023914;28;20021;-83
2023/10/07 13:14:28;;;;;;;0.00;0.00;;;22.30;46.70;;;;;;5024632;28;20054;-83
2023/10/07 13:16:58;;;;;;;0.00;0.00;;;22.20;46.30;;;;;;5023813;28;20035;-83
2023/10/07 13:19:26;;;;;;;0.00;0.00;;;22.30;46.20;;;;;;5024087;28;20037;-82
2023/10/07 13:22:01;;;;;;;0.00;0.00;;;22.20;47.50;;;;;;5023448;28;20079;-83
2023/10/07 13:24:29;;;;;;;0.00;0.00;;;21.80;49.60;;;;;;5024076;28;20049;-82
2023/10/07 13:26:55;;;;;;;0.00;0.00;;;22.30;47.80;;;;;;5024575;28;20043;-82
2023/10/07 13:29:21;;;;;;;0.00;0.00;;;22.30;47.50;;;;;;5023843;28;20021;-83
2023/10/07 13:31:46;;;;;;;0.20;0.20;;;22.20;49.30;;;;;;5021115;28;20043;-82
2023/10/07 13:34:15;;;;;;;0.00;0.00;;;22.30;48.10;;;;;;5024144;28;20036;-82
2023/10/07 13:36:41;;;;;;;0.00;0.00;;;22.40;46.40;;;;;;5024266;28;20040;-82
2023/10/07 13:39:15;;;;;;;0.00;0.00;;;22.20;47.10;;;;;;5024235;28;20105;-82